Time,TemperatureF,DewpointF,PressureIn,WindDirection,WindDirectionDegrees,WindSpeedMPH,WindSpeedGustMPH,Humidity,HourlyPrecipIn,Conditions,Clouds,dailyrainin,SoftwareType,DateUTC
2013-10-05 00:00:00,56.8,56.8,30.00,NNE,15,0.0,3.6,100,0.00,,---,0.00,VWS V14.01,2013-10-05 04:00:00,
2013-10-05 00:01:00,55.9,55.9,30.00,NNE,22,0.0,0.0,100,0.00,,---,0.00,VWS V14.01,2013-10-05 04:01:00,
2013-10-05 00:05:00,56.5,56.5,30.00,WNW,302,3.6,4.5,100,0.00,,---,0.00,VWS V14.01,2013-10-05 04:05:00,
2013-10-05 00:06:00,55.8,55.8,30.00,NNE,23,0.0,0.0,100,0.00,,---,0.00,VWS V14.01,2013-10-05 04:06:00,
2013-10-05 00:10:00,56.7,56.7,30.00,North,359,5.8,6.3,100,0.00,,---,0.00,VWS V14.01,2013-10-05 04:10:00,
2013-10-05 00:11:00,55.6,55.6,30.00,NNE,23,0.0,0.0,100,0.00,,---,0.00,VWS V14.01,2013-10-05 04:11:00,
2013-10-05 00:15:00,56.7,56.7,30.00,NNW,346,2.2,5.8,100,0.00,,---,0.00,VWS V14.01,2013-10-05 04:15:00,
2013-10-05 00:16:00,55.6,55.6,30.00,NNE,22,0.0,0.0,100,0.00,,---,0.00,VWS V14.01,2013-10-05 04:16:00,
2013-10-05 00:20:00,56.7,56.7,30.00,NE,36,4.5,7.2,100,0.00,,---,0.00,VWS V14.01,2013-10-05 04:20:00,
2013-10-05 00:21:00,55.6,55.6,30.00,NNE,22,0.0,0.0,100,0.00,,---,0.00,VWS V14.01,2013-10-05 04:21:00,
2013-10-05 00:25:00,56.5,56.5,30.00,NNE,23,4.9,6.3,100,0.00,,---,0.00,VWS V14.01,2013-10-05 04:25:00,
2013-10-05 00:30:00,56.5,56.5,30.00,NNE,23,1.3,4.9,100,0.00,,---,0.00,VWS V14.01,2013-10-05 04:30:00,
2013-10-05 00:31:00,55.6,55.6,30.00,NNE,23,0.0,0.0,100,0.00,,---,0.00,VWS V14.01,2013-10-05 04:31:00,
2013-10-05 00:35:00,56.5,56.5,30.00,NNE,23,3.1,4.5,100,0.00,,---,0.00,VWS V14.01,2013-10-05 04:35:00,
2013-10-05 00:36:00,55.6,55.6,30.00,NNE,23,0.0,0.0,100,0.00,,---,0.00,VWS V14.01,2013-10-05 04:36:00,
2013-10-05 00:40:00,56.3,56.3,30.00,NNE,22,0.0,4.5,100,0.00,,---,0.00,VWS V14.01,2013-10-05 04:40:00,
2013-10-05 00:45:00,56.3,56.3,30.00,NNE,22,0.0,0.0,100,0.00,,---,0.00,VWS V14.01,2013-10-05 04:45:00,
2013-10-05 00:46:00,55.4,55.4,30.00,NNE,23,0.0,0.0,100,0.00,,---,0.00,VWS V14.01,2013-10-05 04:46:00,
2013-10-05 00:50:00,56.3,56.3,30.00,NNE,22,0.0,0.0,100,0.00,,---,0.00,VWS V14.01,2013-10-05 04:50:00,
2013-10-05 00:51:00,55.4,55.4,30.00,NNE,23,0.0,0.0,100,0.00,,---,0.00,VWS V14.01,2013-10-05 04:51:00,
2013-10-05 00:55:00,56.1,56.1,30.00,NNE,22,0.0,0.0,100,0.00,,---,0.00,VWS V14.01,2013-10-05 04:55:00,
2013-10-05 00:56:00,55.4,55.4,30.00,NNE,23,0.0,0.0,100,0.00,,---,0.00,VWS V14.01,2013-10-05 04:56:00,
2013-10-05 01:00:00,55.9,55.9,30.00,NNE,22,0.0,0.0,100,0.00,,---,0.00,VWS V14.01,2013-10-05 05:00:00,
2013-10-05 01:05:00,55.8,55.8,30.00,NNE,23,0.0,0.0,100,0.00,,---,0.00,VWS V14.01,2013-10-05 05:05:00,
2013-10-05 01:06:00,55.4,55.4,30.00,NNE,23,0.0,0.0,100,0.00,,---,0.00,VWS V14.01,2013-10-05 05:06:00,
2013-10-05 01:10:00,55.6,55.6,30.00,NNE,23,0.0,0.0,100,0.00,,---,0.00,VWS V14.01,2013-10-05 05:10:00,
2013-10-05 01:11:00,55.4,55.4,30.00,NNE,23,0.0,0.0,100,0.00,,---,0.00,VWS V14.01,2013-10-05 05:11:00,
2013-10-05 01:15:00,55.6,55.6,30.00,NNE,22,0.0,0.0,100,0.00,,---,0.00,VWS V14.01,2013-10-05 05:15:00,
2013-10-05 01:16:00,55.4,55.4,30.00,NNE,23,0.0,0.0,100,0.00,,---,0.00,VWS V14.01,2013-10-05 05:16:00,
2013-10-05 01:20:00,55.6,55.6,30.00,NNE,22,0.0,0.0,100,0.00,,---,0.00,VWS V14.01,2013-10-05 05:20:00,
2013-10-05 01:21:00,55.4,55.4,30.00,NNE,23,0.0,0.0,100,0.00,,---,0.00,VWS V14.01,2013-10-05 05:21:00,
2013-10-05 01:25:00,55.6,55.6,30.00,NNE,23,0.0,0.0,100,0.00,,---,0.00,VWS V14.01,2013-10-05 05:25:00,
2013-10-05 01:26:00,55.4,55.4,30.00,NNE,23,0.0,0.0,100,0.00,,---,0.00,VWS V14.01,2013-10-05 05:26:00,
2013-10-05 01:30:00,55.6,55.6,30.00,NNE,23,0.0,0.0,100,0.00,,---,0.00,VWS V14.01,2013-10-05 05:30:00,
2013-10-05 01:31:00,55.4,55.4,30.03,NNE,23,0.0,0.0,100,0.00,,---,0.00,VWS V14.01,2013-10-05 05:31:00,
2013-10-05 01:35:00,55.6,55.6,30.00,NNE,23,0.0,0.0,100,0.00,,---,0.00,VWS V14.01,2013-10-05 05:35:00,
2013-10-05 01:36:00,55.4,55.4,30.03,NNE,23,0.0,0.0,100,0.00,,---,0.00,VWS V14.01,2013-10-05 05:36:00,
2013-10-05 01:40:00,55.6,55.6,30.00,NNE,23,0.0,0.0,100,0.00,,---,0.00,VWS V14.01,2013-10-05 05:40:00,
2013-10-05 01:41:00,55.4,55.4,30.03,NNE,23,0.0,0.0,100,0.00,,---,0.00,VWS V14.01,2013-10-05 05:41:00,
2013-10-05 01:45:00,55.4,55.4,30.00,NNE,23,0.0,0.0,100,0.00,,---,0.00,VWS V14.01,2013-10-05 05:45:00,
2013-10-05 01:46:00,55.4,55.4,30.03,NNE,23,0.0,0.0,100,0.00,,---,0.00,VWS V14.01,2013-10-05 05:46:00,
2013-10-05 01:50:00,55.4,55.4,30.00,NNE,23,0.0,0.0,100,0.00,,---,0.00,VWS V14.01,2013-10-05 05:50:00,
2013-10-05 01:51:00,55.4,55.4,30.03,NNE,23,0.0,0.0,100,0.00,,---,0.00,VWS V14.01,2013-10-05 05:51:00,
2013-10-05 01:55:00,55.4,55.4,30.00,NNE,23,0.0,0.0,100,0.00,,---,0.00,VWS V14.01,2013-10-05 05:55:00,
2013-10-05 01:56:00,55.4,55.4,30.03,NNE,23,0.0,0.0,100,0.00,,---,0.00,VWS V14.01,2013-10-05 05:56:00,
2013-10-05 02:00:00,55.4,55.4,30.00,NNE,23,0.0,0.0,100,0.00,,---,0.00,VWS V14.01,2013-10-05 06:00:00,
2013-10-05 02:01:00,55.2,55.2,30.03,NNE,23,0.0,0.0,100,0.00,,---,0.00,VWS V14.01,2013-10-05 06:01:00,
2013-10-05 02:05:00,55.4,55.4,30.00,NNE,23,0.0,0.0,100,0.00,,---,0.00,VWS V14.01,2013-10-05 06:05:00,
2013-10-05 02:06:00,55.0,55.0,30.03,NNE,23,0.0,0.0,100,0.00,,---,0.00,VWS V14.01,2013-10-05 06:06:00,
2013-10-05 02:10:00,55.4,55.4,30.00,NNE,23,0.0,0.0,100,0.00,,---,0.00,VWS V14.01,2013-10-05 06:10:00,
2013-10-05 02:11:00,55.0,55.0,30.03,NNE,23,0.0,0.4,100,0.00,,---,0.00,VWS V14.01,2013-10-05 06:11:00,
2013-10-05 02:15:00,55.4,55.4,30.00,NNE,23,0.0,0.0,100,0.00,,---,0.00,VWS V14.01,2013-10-05 06:15:00,
2013-10-05 02:16:00,55.2,55.2,30.03,NNE,23,0.0,0.0,100,0.00,,---,0.00,VWS V14.01,2013-10-05 06:16:00,
2013-10-05 02:20:00,55.4,55.4,30.00,NNE,23,0.0,0.0,100,0.00,,---,0.00,VWS V14.01,2013-10-05 06:20:00,
2013-10-05 02:21:00,55.2,55.2,30.03,NNE,22,0.0,0.0,100,0.00,,---,0.00,VWS V14.01,2013-10-05 06:21:00,
2013-10-05 02:25:00,55.4,55.4,30.00,NNE,23,0.0,0.0,100,0.00,,---,0.00,VWS V14.01,2013-10-05 06:25:00,
2013-10-05 02:26:00,55.0,55.0,30.03,NNE,22,0.0,0.0,100,0.00,,---,0.00,VWS V14.01,2013-10-05 06:26:00,
2013-10-05 02:30:00,55.4,55.4,30.03,NNE,23,0.0,0.0,100,0.00,,---,0.00,VWS V14.01,2013-10-05 06:30:00,
2013-10-05 02:31:00,55.0,55.0,30.03,NNE,22,0.0,0.0,100,0.00,,---,0.00,VWS V14.01,2013-10-05 06:31:00,
2013-10-05 02:35:00,55.4,55.4,30.03,NNE,23,0.0,0.0,100,0.00,,---,0.00,VWS V14.01,2013-10-05 06:35:00,
2013-10-05 02:36:00,55.2,55.2,30.03,NNE,22,0.0,0.0,100,0.00,,---,0.00,VWS V14.01,2013-10-05 06:36:00,
2013-10-05 02:40:00,55.4,55.4,30.03,NNE,23,0.0,0.0,100,0.00,,---,0.00,VWS V14.01,2013-10-05 06:40:00,
2013-10-05 02:41:00,55.2,55.2,30.03,NNE,23,0.0,0.0,100,0.00,,---,0.00,VWS V14.01,2013-10-05 06:41:00,
2013-10-05 02:45:00,55.4,55.4,30.03,NNE,23,0.0,0.0,100,0.00,,---,0.00,VWS V14.01,2013-10-05 06:45:00,
2013-10-05 02:46:00,55.2,55.2,30.00,NNE,23,0.0,0.0,100,0.00,,---,0.00,VWS V14.01,2013-10-05 06:46:00,
2013-10-05 02:50:00,55.4,55.4,30.03,NNE,23,0.0,0.0,100,0.00,,---,0.00,VWS V14.01,2013-10-05 06:50:00,
2013-10-05 02:51:00,55.4,55.4,30.00,NNE,22,2.7,3.1,100,0.00,,---,0.00,VWS V14.01,2013-10-05 06:51:00,
2013-10-05 02:55:00,55.4,55.4,30.03,NNE,23,0.0,0.0,100,0.00,,---,0.00,VWS V14.01,2013-10-05 06:55:00,
2013-10-05 02:56:00,55.4,55.4,30.00,NNE,23,3.1,4.0,100,0.00,,---,0.00,VWS V14.01,2013-10-05 06:56:00,
2013-10-05 03:00:00,55.2,55.2,30.03,NNE,23,0.0,0.0,100,0.00,,---,0.00,VWS V14.01,2013-10-05 07:00:00,
2013-10-05 03:01:00,55.2,55.2,30.00,NNE,22,4.5,4.5,100,0.00,,---,0.00,VWS V14.01,2013-10-05 07:01:00,
2013-10-05 03:05:00,55.0,55.0,30.03,NNE,23,0.0,0.0,100,0.00,,---,0.00,VWS V14.01,2013-10-05 07:05:00,
2013-10-05 03:06:00,55.2,55.2,30.00,NNE,22,2.2,4.5,100,0.00,,---,0.00,VWS V14.01,2013-10-05 07:06:00,
2013-10-05 03:10:00,55.0,55.0,30.03,NNE,23,0.0,0.4,100,0.00,,---,0.00,VWS V14.01,2013-10-05 07:10:00,
2013-10-05 03:11:00,55.2,55.2,30.00,NNE,22,0.0,2.2,100,0.00,,---,0.00,VWS V14.01,2013-10-05 07:11:00,
2013-10-05 03:15:00,55.2,55.2,30.03,NNE,23,0.0,0.0,100,0.00,,---,0.00,VWS V14.01,2013-10-05 07:15:00,
2013-10-05 03:16:00,55.2,55.2,30.00,NNE,23,0.0,0.0,100,0.00,,---,0.00,VWS V14.01,2013-10-05 07:16:00,
2013-10-05 03:20:00,55.2,55.2,30.03,NNE,22,0.0,0.0,100,0.00,,---,0.00,VWS V14.01,2013-10-05 07:20:00,
2013-10-05 03:21:00,55.2,55.2,30.00,NNE,23,0.0,0.0,100,0.00,,---,0.00,VWS V14.01,2013-10-05 07:21:00,
2013-10-05 03:25:00,55.0,55.0,30.03,NNE,22,0.0,0.0,100,0.00,,---,0.00,VWS V14.01,2013-10-05 07:25:00,
2013-10-05 03:26:00,55.2,55.2,30.00,NNE,22,0.0,0.0,100,0.00,,---,0.00,VWS V14.01,2013-10-05 07:26:00,
2013-10-05 03:30:00,55.0,55.0,30.03,NNE,22,0.0,0.0,100,0.00,,---,0.00,VWS V14.01,2013-10-05 07:30:00,
2013-10-05 03:31:00,55.2,55.2,30.00,NNE,22,0.0,0.0,100,0.00,,---,0.00,VWS V14.01,2013-10-05 07:31:00,
2013-10-05 03:35:00,55.2,55.2,30.03,NNE,22,0.0,0.0,100,0.00,,---,0.00,VWS V14.01,2013-10-05 07:35:00,
2013-10-05 03:36:00,55.2,55.2,30.00,NNE,23,0.0,0.0,100,0.00,,---,0.00,VWS V14.01,2013-10-05 07:36:00,
2013-10-05 03:40:00,55.2,55.2,30.03,NNE,23,0.0,0.0,100,0.00,,---,0.00,VWS V14.01,2013-10-05 07:40:00,
2013-10-05 03:41:00,55.2,55.2,30.00,NNE,22,0.0,0.0,100,0.00,,---,0.00,VWS V14.01,2013-10-05 07:41:00,
2013-10-05 03:45:00,55.2,55.2,30.00,NNE,23,0.0,0.0,100,0.00,,---,0.00,VWS V14.01,2013-10-05 07:45:00,
2013-10-05 03:46:00,55.2,55.2,30.03,NNE,22,0.0,0.0,100,0.00,,---,0.00,VWS V14.01,2013-10-05 07:46:00,
2013-10-05 03:50:00,55.4,55.4,30.00,NNE,22,2.7,3.1,100,0.00,,---,0.00,VWS V14.01,2013-10-05 07:50:00,
2013-10-05 03:51:00,55.4,55.4,30.03,NNE,23,0.0,0.0,100,0.00,,---,0.00,VWS V14.01,2013-10-05 07:51:00,
2013-10-05 03:55:00,55.4,55.4,30.00,NNE,23,3.1,4.0,100,0.00,,---,0.00,VWS V14.01,2013-10-05 07:55:00,
2013-10-05 03:56:00,55.4,55.4,30.03,NNE,22,0.0,0.0,100,0.00,,---,0.00,VWS V14.01,2013-10-05 07:56:00,
2013-10-05 04:00:00,55.2,55.2,30.00,NNE,22,4.5,4.5,100,0.00,,---,0.00,VWS V14.01,2013-10-05 08:00:00,
2013-10-05 04:01:00,55.4,55.4,30.03,NNE,23,0.0,0.0,100,0.00,,---,0.00,VWS V14.01,2013-10-05 08:01:00,
2013-10-05 04:05:00,55.2,55.2,30.00,NNE,22,2.2,4.5,100,0.00,,---,0.00,VWS V14.01,2013-10-05 08:05:00,
2013-10-05 04:06:00,55.4,55.4,30.03,NNE,23,0.0,0.0,100,0.00,,---,0.00,VWS V14.01,2013-10-05 08:06:00,
2013-10-05 04:10:00,55.2,55.2,30.00,NNE,22,0.0,2.2,100,0.00,,---,0.00,VWS V14.01,2013-10-05 08:10:00,
2013-10-05 04:11:00,55.4,55.4,30.03,NNE,22,0.0,0.0,100,0.00,,---,0.00,VWS V14.01,2013-10-05 08:11:00,
2013-10-05 04:15:00,55.2,55.2,30.00,NNE,23,0.0,0.0,100,0.00,,---,0.00,VWS V14.01,2013-10-05 08:15:00,
2013-10-05 04:16:00,55.6,55.6,30.03,NNE,22,0.0,0.0,100,0.00,,---,0.00,VWS V14.01,2013-10-05 08:16:00,
2013-10-05 04:20:00,55.2,55.2,30.00,NNE,23,0.0,0.0,100,0.00,,---,0.00,VWS V14.01,2013-10-05 08:20:00,
2013-10-05 04:21:00,55.6,55.6,30.03,NNE,22,0.0,0.0,100,0.00,,---,0.00,VWS V14.01,2013-10-05 08:21:00,
2013-10-05 04:25:00,55.2,55.2,30.00,NNE,22,0.0,0.0,100,0.00,,---,0.00,VWS V14.01,2013-10-05 08:25:00,
2013-10-05 04:26:00,55.6,55.6,30.03,NNE,23,0.0,0.0,100,0.00,,---,0.00,VWS V14.01,2013-10-05 08:26:00,
2013-10-05 04:30:00,55.2,55.2,30.00,NNE,22,0.0,0.0,100,0.00,,---,0.00,VWS V14.01,2013-10-05 08:30:00,
2013-10-05 04:31:00,55.6,55.6,30.03,NNE,22,0.0,0.0,100,0.00,,---,0.00,VWS V14.01,2013-10-05 08:31:00,
2013-10-05 04:35:00,55.2,55.2,30.00,NNE,23,0.0,0.0,100,0.00,,---,0.00,VWS V14.01,2013-10-05 08:35:00,
2013-10-05 04:36:00,55.6,55.6,30.03,NNE,22,0.0,0.0,100,0.00,,---,0.00,VWS V14.01,2013-10-05 08:36:00,
2013-10-05 04:40:00,55.2,55.2,30.00,NNE,22,0.0,0.0,100,0.00,,---,0.00,VWS V14.01,2013-10-05 08:40:00,
2013-10-05 04:41:00,55.6,55.6,30.03,NNE,22,0.0,0.0,100,0.00,,---,0.00,VWS V14.01,2013-10-05 08:41:00,
2013-10-05 04:45:00,55.2,55.2,30.03,NNE,22,0.0,0.0,100,0.00,,---,0.00,VWS V14.01,2013-10-05 08:45:00,
2013-10-05 04:46:00,55.6,55.6,30.03,NNE,22,0.0,0.0,100,0.00,,---,0.00,VWS V14.01,2013-10-05 08:46:00,
2013-10-05 04:50:00,55.4,55.4,30.03,NNE,23,0.0,0.0,100,0.00,,---,0.00,VWS V14.01,2013-10-05 08:50:00,
2013-10-05 04:51:00,55.6,55.6,30.03,NNE,22,0.0,0.0,100,0.00,,---,0.00,VWS V14.01,2013-10-05 08:51:00,
2013-10-05 04:55:00,55.4,55.4,30.03,NNE,22,0.0,0.0,100,0.00,,---,0.00,VWS V14.01,2013-10-05 08:55:00,
2013-10-05 04:56:00,55.6,55.6,30.03,NNE,23,0.0,0.0,100,0.00,,---,0.00,VWS V14.01,2013-10-05 08:56:00,
2013-10-05 05:00:00,55.4,55.4,30.03,NNE,23,0.0,0.0,100,0.00,,---,0.00,VWS V14.01,2013-10-05 09:00:00,
2013-10-05 05:01:00,55.8,55.8,30.00,NNE,21,0.0,0.0,100,0.00,,---,0.00,VWS V14.01,2013-10-05 09:01:00,
2013-10-05 05:05:00,55.4,55.4,30.03,NNE,23,0.0,0.0,100,0.00,,---,0.00,VWS V14.01,2013-10-05 09:05:00,
2013-10-05 05:06:00,55.8,55.8,30.00,NNE,22,0.0,0.0,100,0.00,,---,0.00,VWS V14.01,2013-10-05 09:06:00,
2013-10-05 05:10:00,55.4,55.4,30.03,NNE,22,0.0,0.0,100,0.00,,---,0.00,VWS V14.01,2013-10-05 09:10:00,
2013-10-05 05:11:00,55.6,55.6,30.00,NNE,22,0.0,0.0,100,0.00,,---,0.00,VWS V14.01,2013-10-05 09:11:00,
2013-10-05 05:15:00,55.6,55.6,30.03,NNE,22,0.0,0.0,100,0.00,,---,0.00,VWS V14.01,2013-10-05 09:15:00,
2013-10-05 05:16:00,55.6,55.6,30.00,NNE,22,0.0,0.0,100,0.00,,---,0.00,VWS V14.01,2013-10-05 09:16:00,
2013-10-05 05:20:00,55.6,55.6,30.03,NNE,22,0.0,0.0,100,0.00,,---,0.00,VWS V14.01,2013-10-05 09:20:00,
2013-10-05 05:21:00,55.6,55.6,30.00,NNE,22,0.0,0.0,100,0.00,,---,0.00,VWS V14.01,2013-10-05 09:21:00,
2013-10-05 05:25:00,55.6,55.6,30.03,NNE,23,0.0,0.0,100,0.00,,---,0.00,VWS V14.01,2013-10-05 09:25:00,
2013-10-05 05:26:00,55.6,55.6,30.00,NNE,22,0.0,0.0,100,0.00,,---,0.00,VWS V14.01,2013-10-05 09:26:00,
2013-10-05 05:30:00,55.6,55.6,30.03,NNE,22,0.0,0.0,100,0.00,,---,0.00,VWS V14.01,2013-10-05 09:30:00,
2013-10-05 05:31:00,55.6,55.6,30.03,NNE,23,0.0,0.0,100,0.00,,---,0.00,VWS V14.01,2013-10-05 09:31:00,
2013-10-05 05:35:00,55.6,55.6,30.03,NNE,22,0.0,0.0,100,0.00,,---,0.00,VWS V14.01,2013-10-05 09:35:00,
2013-10-05 05:36:00,55.6,55.6,30.03,NW,316,0.0,3.1,100,0.00,,---,0.00,VWS V14.01,2013-10-05 09:36:00,
2013-10-05 05:40:00,55.6,55.6,30.03,NNE,22,0.0,0.0,100,0.00,,---,0.00,VWS V14.01,2013-10-05 09:40:00,
2013-10-05 05:41:00,55.9,55.9,30.03,NW,312,0.0,3.1,100,0.00,,---,0.00,VWS V14.01,2013-10-05 09:41:00,
2013-10-05 05:45:00,55.6,55.6,30.03,NNE,22,0.0,0.0,100,0.00,,---,0.00,VWS V14.01,2013-10-05 09:45:00,
2013-10-05 05:46:00,55.9,55.9,30.03,NW,312,0.0,0.0,100,0.00,,---,0.00,VWS V14.01,2013-10-05 09:46:00,
2013-10-05 05:50:00,55.6,55.6,30.03,NNE,22,0.0,0.0,100,0.00,,---,0.00,VWS V14.01,2013-10-05 09:50:00,
2013-10-05 05:51:00,55.9,55.9,30.03,NW,312,0.0,0.0,100,0.00,,---,0.00,VWS V14.01,2013-10-05 09:51:00,
2013-10-05 05:55:00,55.6,55.6,30.03,NNE,23,0.0,0.0,100,0.00,,---,0.00,VWS V14.01,2013-10-05 09:55:00,
2013-10-05 05:56:00,55.9,55.9,30.03,NW,312,0.0,0.0,100,0.00,,---,0.00,VWS V14.01,2013-10-05 09:56:00,
2013-10-05 06:00:00,55.8,55.8,30.00,NNE,21,0.0,0.0,100,0.00,,---,0.00,VWS V14.01,2013-10-05 10:00:00,
2013-10-05 06:01:00,55.8,55.8,30.03,NW,312,0.0,0.0,100,0.00,,---,0.00,VWS V14.01,2013-10-05 10:01:00,
2013-10-05 06:05:00,55.8,55.8,30.00,NNE,22,0.0,0.0,100,0.00,,---,0.00,VWS V14.01,2013-10-05 10:05:00,
2013-10-05 06:06:00,55.8,55.8,30.03,NW,312,0.0,0.0,100,0.00,,---,0.00,VWS V14.01,2013-10-05 10:06:00,
2013-10-05 06:10:00,55.6,55.6,30.00,NNE,22,0.0,0.0,100,0.00,,---,0.00,VWS V14.01,2013-10-05 10:10:00,
2013-10-05 06:11:00,55.8,55.8,30.03,NW,312,0.0,0.0,100,0.00,,---,0.00,VWS V14.01,2013-10-05 10:11:00,
2013-10-05 06:15:00,55.6,55.6,30.00,NNE,22,0.0,0.0,100,0.00,,---,0.00,VWS V14.01,2013-10-05 10:15:00,
2013-10-05 06:16:00,55.8,55.8,30.03,NW,312,0.0,0.0,100,0.00,,---,0.00,VWS V14.01,2013-10-05 10:16:00,
2013-10-05 06:20:00,55.6,55.6,30.00,NNE,22,0.0,0.0,100,0.00,,---,0.00,VWS V14.01,2013-10-05 10:20:00,
2013-10-05 06:21:00,55.8,55.8,30.03,NW,312,0.0,0.0,100,0.00,,---,0.00,VWS V14.01,2013-10-05 10:21:00,
2013-10-05 06:25:00,55.6,55.6,30.00,NNE,22,0.0,0.0,100,0.00,,---,0.00,VWS V14.01,2013-10-05 10:25:00,
2013-10-05 06:26:00,55.6,55.6,30.03,NW,312,0.0,0.0,100,0.00,,---,0.00,VWS V14.01,2013-10-05 10:26:00,
2013-10-05 06:30:00,55.6,55.6,30.03,NNE,23,0.0,0.0,100,0.00,,---,0.00,VWS V14.01,2013-10-05 10:30:00,
2013-10-05 06:31:00,55.6,55.6,30.03,NW,314,0.0,0.0,100,0.00,,---,0.00,VWS V14.01,2013-10-05 10:31:00,
2013-10-05 06:35:00,55.6,55.6,30.03,NW,316,0.0,3.1,100,0.00,,---,0.00,VWS V14.01,2013-10-05 10:35:00,
2013-10-05 06:36:00,55.8,55.8,30.03,NW,312,0.0,0.0,100,0.00,,---,0.00,VWS V14.01,2013-10-05 10:36:00,
2013-10-05 06:40:00,55.9,55.9,30.03,NW,312,0.0,3.1,100,0.00,,---,0.00,VWS V14.01,2013-10-05 10:40:00,
2013-10-05 06:41:00,55.8,55.8,30.03,NW,312,0.0,0.0,100,0.00,,---,0.00,VWS V14.01,2013-10-05 10:41:00,
2013-10-05 06:45:00,55.9,55.9,30.03,NW,312,0.0,0.0,100,0.00,,---,0.00,VWS V14.01,2013-10-05 10:45:00,
2013-10-05 06:46:00,55.8,55.8,30.03,NW,312,0.0,0.0,100,0.00,,---,0.00,VWS V14.01,2013-10-05 10:46:00,
2013-10-05 06:50:00,55.9,55.9,30.03,NW,312,0.0,0.0,100,0.00,,---,0.00,VWS V14.01,2013-10-05 10:50:00,
2013-10-05 06:51:00,55.8,55.8,30.03,NW,312,0.0,0.0,100,0.00,,---,0.00,VWS V14.01,2013-10-05 10:51:00,
2013-10-05 06:55:00,55.9,55.9,30.03,NW,312,0.0,0.0,100,0.00,,---,0.00,VWS V14.01,2013-10-05 10:55:00,
2013-10-05 06:56:00,55.9,55.9,30.03,NW,312,0.0,0.0,100,0.00,,---,0.00,VWS V14.01,2013-10-05 10:56:00,
2013-10-05 07:00:00,55.8,55.8,30.03,NW,312,0.0,0.0,100,0.00,,---,0.00,VWS V14.01,2013-10-05 11:00:00,
2013-10-05 07:01:00,55.9,55.9,30.03,NW,319,3.1,4.0,100,0.00,,---,0.00,VWS V14.01,2013-10-05 11:01:00,
2013-10-05 07:05:00,55.8,55.8,30.03,NW,312,0.0,0.0,100,0.00,,---,0.00,VWS V14.01,2013-10-05 11:05:00,
2013-10-05 07:10:00,55.8,55.8,30.03,NW,312,0.0,0.0,100,0.00,,---,0.00,VWS V14.01,2013-10-05 11:10:00,
2013-10-05 07:11:00,55.9,55.9,30.03,NW,319,0.0,0.0,100,0.00,,---,0.00,VWS V14.01,2013-10-05 11:11:00,
2013-10-05 07:15:00,55.8,55.8,30.03,NW,312,0.0,0.0,100,0.00,,---,0.00,VWS V14.01,2013-10-05 11:15:00,
2013-10-05 07:16:00,56.1,56.1,30.03,NW,319,0.0,0.0,100,0.00,,---,0.00,VWS V14.01,2013-10-05 11:16:00,
2013-10-05 07:20:00,55.8,55.8,30.03,NW,312,0.0,0.0,100,0.00,,---,0.00,VWS V14.01,2013-10-05 11:20:00,
2013-10-05 07:25:00,55.6,55.6,30.03,NW,312,0.0,0.0,100,0.00,,---,0.00,VWS V14.01,2013-10-05 11:25:00,
2013-10-05 07:26:00,56.1,56.1,30.03,NW,319,0.0,0.0,100,0.00,,---,0.00,VWS V14.01,2013-10-05 11:26:00,
2013-10-05 07:30:00,55.6,55.6,30.03,NW,314,0.0,0.0,100,0.00,,---,0.00,VWS V14.01,2013-10-05 11:30:00,
2013-10-05 07:35:00,55.8,55.8,30.03,NW,312,0.0,0.0,100,0.00,,---,0.00,VWS V14.01,2013-10-05 11:35:00,
2013-10-05 07:36:00,56.1,56.1,30.03,NW,319,0.0,0.0,100,0.00,,---,0.00,VWS V14.01,2013-10-05 11:36:00,
2013-10-05 07:40:00,55.8,55.8,30.03,NW,312,0.0,0.0,100,0.00,,---,0.00,VWS V14.01,2013-10-05 11:40:00,
2013-10-05 07:41:00,56.3,56.3,30.03,NW,319,0.0,0.0,100,0.00,,---,0.00,VWS V14.01,2013-10-05 11:41:00,
2013-10-05 07:45:00,55.8,55.8,30.03,NW,312,0.0,0.0,100,0.00,,---,0.00,VWS V14.01,2013-10-05 11:45:00,
2013-10-05 07:46:00,56.3,56.3,30.03,NW,319,0.0,0.0,100,0.00,,---,0.00,VWS V14.01,2013-10-05 11:46:00,
2013-10-05 07:50:00,55.8,55.8,30.03,NW,312,0.0,0.0,100,0.00,,---,0.00,VWS V14.01,2013-10-05 11:50:00,
2013-10-05 07:51:00,56.3,56.3,30.03,NNE,33,4.5,4.9,100,0.00,,---,0.00,VWS V14.01,2013-10-05 11:51:00,
2013-10-05 07:55:00,55.9,55.9,30.03,NW,312,0.0,0.0,100,0.00,,---,0.00,VWS V14.01,2013-10-05 11:55:00,
2013-10-05 07:56:00,56.3,56.3,30.03,NNE,33,0.0,4.9,100,0.00,,---,0.00,VWS V14.01,2013-10-05 11:56:00,
2013-10-05 08:00:00,55.9,55.9,30.03,NW,319,3.1,4.0,100,0.00,,---,0.00,VWS V14.01,2013-10-05 12:00:00,
2013-10-05 08:01:00,56.3,56.3,30.03,NNE,33,0.0,0.0,100,0.00,,---,0.00,VWS V14.01,2013-10-05 12:01:00,
2013-10-05 08:05:00,55.9,55.9,30.03,NW,319,0.0,3.1,100,0.00,,---,0.00,VWS V14.01,2013-10-05 12:05:00,
2013-10-05 08:06:00,56.5,56.5,30.03,NNE,33,0.0,0.0,100,0.00,,---,0.00,VWS V14.01,2013-10-05 12:06:00,
2013-10-05 08:10:00,55.9,55.9,30.03,NW,319,0.0,0.0,100,0.00,,---,0.00,VWS V14.01,2013-10-05 12:10:00,
2013-10-05 08:11:00,56.5,56.5,30.03,NNE,33,0.0,0.0,100,0.00,,---,0.00,VWS V14.01,2013-10-05 12:11:00,
2013-10-05 08:15:00,56.1,56.1,30.03,NW,319,0.0,0.0,100,0.00,,---,0.00,VWS V14.01,2013-10-05 12:15:00,
2013-10-05 08:20:00,56.1,56.1,30.03,NW,319,0.0,0.0,100,0.00,,---,0.00,VWS V14.01,2013-10-05 12:20:00,
2013-10-05 08:21:00,56.8,56.8,30.03,NNE,33,0.0,0.0,100,0.00,,---,0.00,VWS V14.01,2013-10-05 12:21:00,
2013-10-05 08:25:00,56.1,56.1,30.03,NW,319,0.0,0.0,100,0.00,,---,0.00,VWS V14.01,2013-10-05 12:25:00,
2013-10-05 08:26:00,56.8,56.8,30.03,NNE,33,0.0,0.0,100,0.00,,---,0.00,VWS V14.01,2013-10-05 12:26:00,
2013-10-05 08:30:00,56.1,56.1,30.03,NW,319,0.0,0.0,100,0.00,,---,0.00,VWS V14.01,2013-10-05 12:30:00,
2013-10-05 08:31:00,56.8,56.8,30.03,NNE,33,0.0,0.0,100,0.00,,---,0.00,VWS V14.01,2013-10-05 12:31:00,
2013-10-05 08:35:00,56.1,56.1,30.03,NW,319,0.0,0.0,100,0.00,,---,0.00,VWS V14.01,2013-10-05 12:35:00,
2013-10-05 08:36:00,57.0,57.0,30.03,NNE,33,0.0,0.0,100,0.00,,---,0.00,VWS V14.01,2013-10-05 12:36:00,
2013-10-05 08:40:00,56.3,56.3,30.03,NW,319,0.0,0.0,100,0.00,,---,0.00,VWS V14.01,2013-10-05 12:40:00,
2013-10-05 08:45:00,56.3,56.3,30.03,NW,319,0.0,0.0,100,0.00,,---,0.00,VWS V14.01,2013-10-05 12:45:00,
2013-10-05 08:46:00,57.4,57.4,30.06,NNE,33,0.0,0.0,100,0.00,,---,0.00,VWS V14.01,2013-10-05 12:46:00,
2013-10-05 08:50:00,56.3,56.3,30.03,NNE,33,4.5,4.9,100,0.00,,---,0.00,VWS V14.01,2013-10-05 12:50:00,
2013-10-05 08:55:00,56.3,56.3,30.03,NNE,33,0.0,4.9,100,0.00,,---,0.00,VWS V14.01,2013-10-05 12:55:00,
2013-10-05 08:56:00,57.7,57.7,30.06,NNE,33,0.0,0.0,100,0.00,,---,0.00,VWS V14.01,2013-10-05 12:56:00,
2013-10-05 09:00:00,56.3,56.3,30.03,NNE,33,0.0,0.0,100,0.00,,---,0.00,VWS V14.01,2013-10-05 13:00:00,
2013-10-05 09:05:00,56.5,56.5,30.03,NNE,33,0.0,0.0,100,0.00,,---,0.00,VWS V14.01,2013-10-05 13:05:00,
2013-10-05 09:06:00,58.3,58.3,30.06,SSW,192,3.6,5.8,100,0.00,,---,0.00,VWS V14.01,2013-10-05 13:06:00,
2013-10-05 09:10:00,56.5,56.5,30.03,NNE,33,0.0,0.0,100,0.00,,---,0.00,VWS V14.01,2013-10-05 13:10:00,
2013-10-05 09:11:00,58.6,58.6,30.06,SW,236,0.0,5.8,100,0.00,,---,0.00,VWS V14.01,2013-10-05 13:11:00,
2013-10-05 09:15:00,56.7,56.7,30.03,NNE,33,0.0,0.0,100,0.00,,---,0.00,VWS V14.01,2013-10-05 13:15:00,
2013-10-05 09:20:00,56.8,56.8,30.03,NNE,33,0.0,0.0,100,0.00,,---,0.00,VWS V14.01,2013-10-05 13:20:00,
2013-10-05 09:21:00,58.6,58.6,30.06,SW,236,2.2,2.2,100,0.00,,---,0.00,VWS V14.01,2013-10-05 13:21:00,
2013-10-05 09:25:00,56.8,56.8,30.03,NNE,33,0.0,0.0,100,0.00,,---,0.00,VWS V14.01,2013-10-05 13:25:00,
2013-10-05 09:30:00,56.8,56.8,30.03,NNE,33,0.0,0.0,100,0.00,,---,0.00,VWS V14.01,2013-10-05 13:30:00,
2013-10-05 09:31:00,57.0,57.0,30.06,NNE,23,4.5,6.7,100,0.00,,---,0.00,VWS V14.01,2013-10-05 13:31:00,
2013-10-05 09:35:00,57.0,57.0,30.03,NNE,33,0.0,0.0,100,0.00,,---,0.00,VWS V14.01,2013-10-05 13:35:00,
2013-10-05 09:40:00,56.8,56.8,30.06,NNE,22,4.0,6.3,100,0.00,,---,0.00,VWS V14.01,2013-10-05 13:40:00,
2013-10-05 09:45:00,57.0,57.0,30.06,NNE,22,3.6,5.8,100,0.00,,---,0.00,VWS V14.01,2013-10-05 13:45:00,
2013-10-05 09:50:00,57.2,57.2,30.06,NNE,16,3.1,4.0,100,0.00,,---,0.00,VWS V14.01,2013-10-05 13:50:00,
2013-10-05 09:55:00,57.7,57.7,30.06,NNE,33,0.0,0.0,100,0.00,,---,0.00,VWS V14.01,2013-10-05 13:55:00,
2013-10-05 10:00:00,57.4,57.4,30.06,NNE,16,1.8,3.6,100,0.00,,---,0.00,VWS V14.01,2013-10-05 14:00:00,
2013-10-05 10:05:00,58.3,58.3,30.06,SSW,192,3.6,5.8,100,0.00,,---,0.00,VWS V14.01,2013-10-05 14:05:00,
2013-10-05 10:10:00,57.9,57.9,30.06,NNE,16,0.0,3.1,100,0.00,,---,0.00,VWS V14.01,2013-10-05 14:10:00,
2013-10-05 10:15:00,59.2,59.2,30.06,SW,236,0.0,0.0,100,0.00,,---,0.00,VWS V14.01,2013-10-05 14:15:00,
2013-10-05 10:20:00,58.3,58.3,30.03,NNE,16,3.1,4.0,100,0.00,,---,0.00,VWS V14.01,2013-10-05 14:20:00,
2013-10-05 10:25:00,58.5,58.5,30.03,NNE,16,0.0,3.1,100,0.00,,---,0.00,VWS V14.01,2013-10-05 14:25:00,
2013-10-05 10:30:00,58.6,58.6,30.06,NNE,16,0.0,0.0,100,0.00,,---,0.00,VWS V14.01,2013-10-05 14:30:00,
2013-10-05 10:35:00,58.6,58.6,30.06,NNE,16,0.0,0.0,100,0.00,,---,0.00,VWS V14.01,2013-10-05 14:35:00,
2013-10-05 10:40:00,56.8,56.8,30.06,NNE,22,4.0,6.3,100,0.00,,---,0.00,VWS V14.01,2013-10-05 14:40:00,
2013-10-05 10:45:00,59.0,59.0,30.03,NNE,16,0.0,0.0,100,0.00,,---,0.00,VWS V14.01,2013-10-05 14:45:00,
2013-10-05 10:50:00,58.6,58.6,30.03,NNE,16,0.0,0.0,100,0.00,,---,0.00,VWS V14.01,2013-10-05 14:50:00,
2013-10-05 10:55:00,58.6,58.6,30.03,NNE,16,2.7,3.6,100,0.00,,---,0.00,VWS V14.01,2013-10-05 14:55:00,
2013-10-05 11:00:00,57.4,57.4,30.06,NNE,16,1.8,3.6,100,0.00,,---,0.00,VWS V14.01,2013-10-05 15:00:00,
2013-10-05 11:05:00,58.3,58.3,30.06,NNE,29,4.9,6.7,100,0.00,,---,0.00,VWS V14.01,2013-10-05 15:05:00,
2013-10-05 11:10:00,59.4,59.4,30.06,NNE,33,4.5,5.4,100,0.00,,---,0.00,VWS V14.01,2013-10-05 15:10:00,
2013-10-05 11:15:00,59.2,59.2,30.03,NNE,22,4.9,5.4,100,0.00,,---,0.00,VWS V14.01,2013-10-05 15:15:00,
2013-10-05 11:20:00,59.0,59.0,30.03,NNE,26,3.6,6.3,100,0.00,,---,0.00,VWS V14.01,2013-10-05 15:20:00,
2013-10-05 11:25:00,58.5,58.5,30.03,NNE,16,0.0,3.1,100,0.00,,---,0.00,VWS V14.01,2013-10-05 15:25:00,
2013-10-05 11:30:00,59.7,59.7,30.03,North,4,0.0,3.6,100,0.00,,---,0.00,VWS V14.01,2013-10-05 15:30:00,
2013-10-05 11:35:00,60.1,60.1,30.03,North,4,0.0,0.0,100,0.00,,---,0.00,VWS V14.01,2013-10-05 15:35:00,
2013-10-05 11:40:00,59.9,59.9,30.03,North,4,0.0,0.0,100,0.00,,---,0.00,VWS V14.01,2013-10-05 15:40:00,
2013-10-05 11:45:00,60.1,60.1,30.03,North,4,0.0,4.5,100,0.00,,---,0.00,VWS V14.01,2013-10-05 15:45:00,
2013-10-05 11:50:00,59.7,59.7,30.03,North,4,0.0,0.0,100,0.00,,---,0.00,VWS V14.01,2013-10-05 15:50:00,
2013-10-05 11:55:00,60.1,60.1,30.03,North,4,0.0,0.0,100,0.00,,---,0.00,VWS V14.01,2013-10-05 15:55:00,
2013-10-05 12:00:00,58.5,58.5,30.06,NNE,19,4.9,5.4,100,0.00,,---,0.00,VWS V14.01,2013-10-05 16:00:00,
2013-10-05 12:05:00,60.3,60.3,30.03,North,4,0.0,2.7,100,0.00,,---,0.00,VWS V14.01,2013-10-05 16:05:00,
2013-10-05 12:10:00,59.4,59.4,30.06,NNE,33,4.5,5.4,100,0.00,,---,0.00,VWS V14.01,2013-10-05 16:10:00,
2013-10-05 12:15:00,59.2,59.2,30.03,NNE,22,4.9,5.4,100,0.00,,---,0.00,VWS V14.01,2013-10-05 16:15:00,
2013-10-05 12:20:00,60.3,60.3,30.03,NNE,28,4.5,6.3,100,0.00,,---,0.00,VWS V14.01,2013-10-05 16:20:00,
2013-10-05 12:25:00,60.1,60.1,30.03,NNE,12,4.0,5.4,100,0.00,,---,0.00,VWS V14.01,2013-10-05 16:25:00,
2013-10-05 12:30:00,60.3,60.3,30.03,North,11,1.3,4.0,100,0.00,,---,0.00,VWS V14.01,2013-10-05 16:30:00,
2013-10-05 12:35:00,60.1,60.1,30.03,North,4,0.0,0.0,100,0.00,,---,0.00,VWS V14.01,2013-10-05 16:35:00,
2013-10-05 12:40:00,61.3,61.3,30.03,NNE,12,0.0,0.0,100,0.00,,---,0.00,VWS V14.01,2013-10-05 16:40:00,
2013-10-05 12:45:00,60.1,60.1,30.03,North,4,0.0,4.5,100,0.00,,---,0.00,VWS V14.01,2013-10-05 16:45:00,
2013-10-05 12:50:00,62.4,62.4,30.03,NNE,12,0.0,0.0,100,0.00,,---,0.00,VWS V14.01,2013-10-05 16:50:00,
2013-10-05 12:55:00,60.1,60.1,30.03,North,4,0.0,0.0,100,0.00,,---,0.00,VWS V14.01,2013-10-05 16:55:00,
2013-10-05 13:00:00,62.6,62.6,30.03,NNE,12,0.0,0.0,100,0.00,,---,0.00,VWS V14.01,2013-10-05 17:00:00,
2013-10-05 13:05:00,62.4,62.4,30.03,NNE,12,0.0,0.0,100,0.00,,---,0.00,VWS V14.01,2013-10-05 17:05:00,
2013-10-05 13:10:00,60.1,60.1,30.03,North,4,0.0,0.0,100,0.00,,---,0.00,VWS V14.01,2013-10-05 17:10:00,
2013-10-05 13:15:00,63.1,63.1,30.03,NNE,12,0.0,0.0,100,0.00,,---,0.00,VWS V14.01,2013-10-05 17:15:00,
2013-10-05 13:20:00,60.3,60.3,30.03,NNE,28,4.5,6.3,100,0.00,,---,0.00,VWS V14.01,2013-10-05 17:20:00,
2013-10-05 13:25:00,63.1,63.1,30.03,NNE,12,0.0,0.0,100,0.00,,---,0.00,VWS V14.01,2013-10-05 17:25:00,
2013-10-05 13:30:00,60.3,60.3,30.03,North,11,1.3,4.0,100,0.00,,---,0.00,VWS V14.01,2013-10-05 17:30:00,
2013-10-05 13:35:00,62.1,62.1,30.03,NNE,30,6.7,9.4,100,0.00,,---,0.00,VWS V14.01,2013-10-05 17:35:00,
2013-10-05 13:40:00,61.3,61.3,30.03,NE,36,7.2,8.5,100,0.00,,---,0.00,VWS V14.01,2013-10-05 17:40:00,
2013-10-05 13:45:00,61.0,61.0,30.03,NNW,340,6.7,9.8,100,0.00,,---,0.00,VWS V14.01,2013-10-05 17:45:00,
2013-10-05 13:50:00,62.4,62.4,30.03,NNE,12,0.0,0.0,100,0.00,,---,0.00,VWS V14.01,2013-10-05 17:50:00,
2013-10-05 13:55:00,61.2,61.2,30.03,NNE,16,4.5,6.7,100,0.00,,---,0.00,VWS V14.01,2013-10-05 17:55:00,
2013-10-05 14:00:00,60.8,60.8,30.03,North,7,4.0,6.7,100,0.00,,---,0.00,VWS V14.01,2013-10-05 18:00:00,
2013-10-05 14:05:00,62.4,62.4,30.03,NNE,12,0.0,0.0,100,0.00,,---,0.00,VWS V14.01,2013-10-05 18:05:00,
2013-10-05 14:10:00,60.3,60.3,30.03,North,8,6.3,10.3,100,0.00,,---,0.00,VWS V14.01,2013-10-05 18:10:00,
2013-10-05 14:15:00,63.1,63.1,30.03,NNE,12,0.0,0.0,100,0.00,,---,0.00,VWS V14.01,2013-10-05 18:15:00,
2013-10-05 14:20:00,60.6,60.6,30.00,North,360,5.8,8.5,100,0.00,,---,0.00,VWS V14.01,2013-10-05 18:20:00,
2013-10-05 14:25:00,61.0,61.0,30.00,NNE,25,4.5,7.2,100,0.00,,---,0.00,VWS V14.01,2013-10-05 18:25:00,
2013-10-05 14:30:00,63.0,63.0,30.03,NNE,33,6.7,6.7,100,0.00,,---,0.00,VWS V14.01,2013-10-05 18:30:00,
2013-10-05 14:35:00,61.7,61.7,30.00,NE,50,3.6,5.4,100,0.00,,---,0.00,VWS V14.01,2013-10-05 18:35:00,
2013-10-05 14:40:00,61.3,61.3,30.03,NE,36,7.2,8.5,100,0.00,,---,0.00,VWS V14.01,2013-10-05 18:40:00,
2013-10-05 14:45:00,61.7,61.7,30.00,NNE,15,3.1,5.8,100,0.00,,---,0.00,VWS V14.01,2013-10-05 18:45:00,
2013-10-05 14:50:00,63.1,63.1,30.00,North,359,3.6,5.8,100,0.00,,---,0.00,VWS V14.01,2013-10-05 18:50:00,
2013-10-05 14:55:00,61.2,61.2,30.03,NNE,16,4.5,6.7,100,0.00,,---,0.00,VWS V14.01,2013-10-05 18:55:00,
2013-10-05 15:00:00,64.4,64.4,30.00,North,352,4.0,5.4,100,0.00,,---,0.00,VWS V14.01,2013-10-05 19:00:00,
2013-10-05 15:05:00,60.8,60.8,30.03,NE,35,6.7,8.1,100,0.00,,---,0.00,VWS V14.01,2013-10-05 19:05:00,
2013-10-05 15:10:00,63.9,63.9,30.00,NNE,21,6.3,8.5,100,0.00,,---,0.00,VWS V14.01,2013-10-05 19:10:00,
2013-10-05 15:15:00,63.1,63.1,30.00,North,2,4.0,6.7,100,0.00,,---,0.00,VWS V14.01,2013-10-05 19:15:00,
2013-10-05 15:20:00,63.0,63.0,30.00,NNE,29,5.8,6.3,100,0.00,,---,0.00,VWS V14.01,2013-10-05 19:20:00,
2013-10-05 15:25:00,63.3,63.3,30.00,NNE,19,5.4,7.2,100,0.00,,---,0.00,VWS V14.01,2013-10-05 19:25:00,
2013-10-05 15:30:00,61.5,61.5,30.00,NE,38,4.5,6.3,100,0.00,,---,0.00,VWS V14.01,2013-10-05 19:30:00,
2013-10-05 15:35:00,63.3,63.3,30.00,NNE,19,8.1,9.8,100,0.00,,---,0.00,VWS V14.01,2013-10-05 19:35:00,
2013-10-05 15:40:00,61.7,61.7,30.00,NNE,29,4.5,5.4,100,0.00,,---,0.00,VWS V14.01,2013-10-05 19:40:00,
2013-10-05 15:45:00,62.2,62.2,30.00,North,11,7.6,9.4,100,0.00,,---,0.00,VWS V14.01,2013-10-05 19:45:00,
2013-10-05 15:50:00,63.1,63.1,30.00,North,359,3.6,5.8,100,0.00,,---,0.00,VWS V14.01,2013-10-05 19:50:00,
2013-10-05 15:55:00,61.5,61.5,30.00,NE,40,7.6,8.1,100,0.00,,---,0.00,VWS V14.01,2013-10-05 19:55:00,
2013-10-05 16:00:00,61.0,61.0,30.03,NNE,25,7.6,9.8,100,0.00,,---,0.00,VWS V14.01,2013-10-05 20:00:00,
2013-10-05 16:05:00,65.5,65.5,30.00,North,359,4.0,5.4,100,0.00,,---,0.00,VWS V14.01,2013-10-05 20:05:00,
2013-10-05 16:10:00,60.4,60.4,30.03,NNE,32,7.2,9.4,100,0.00,,---,0.00,VWS V14.01,2013-10-05 20:10:00,
2013-10-05 16:15:00,63.1,63.1,30.00,North,2,4.0,6.7,100,0.00,,---,0.00,VWS V14.01,2013-10-05 20:15:00,
2013-10-05 16:20:00,59.9,59.9,30.03,North,360,6.3,11.2,100,0.00,,---,0.00,VWS V14.01,2013-10-05 20:20:00,
2013-10-05 16:25:00,59.9,59.9,30.03,North,359,10.3,10.7,100,0.00,,---,0.00,VWS V14.01,2013-10-05 20:25:00,
2013-10-05 16:30:00,63.7,63.7,30.00,North,5,6.3,8.1,100,0.00,,---,0.00,VWS V14.01,2013-10-05 20:30:00,
2013-10-05 16:35:00,59.7,59.7,30.03,North,360,7.2,10.7,100,0.00,,---,0.00,VWS V14.01,2013-10-05 20:35:00,
2013-10-05 16:40:00,62.8,62.8,30.00,NNE,21,8.9,9.8,100,0.00,,---,0.00,VWS V14.01,2013-10-05 20:40:00,
2013-10-05 16:45:00,59.9,59.9,30.03,NNE,29,3.6,8.1,100,0.00,,---,0.00,VWS V14.01,2013-10-05 20:45:00,
2013-10-05 16:50:00,59.9,59.9,30.03,North,1,5.8,8.9,100,0.00,,---,0.00,VWS V14.01,2013-10-05 20:50:00,
2013-10-05 16:55:00,59.9,59.9,30.03,NE,35,4.5,8.5,100,0.00,,---,0.00,VWS V14.01,2013-10-05 20:55:00,
2013-10-05 17:00:00,60.1,60.1,30.03,North,359,1.8,6.3,100,0.00,,---,0.00,VWS V14.01,2013-10-05 21:00:00,
2013-10-05 17:05:00,60.8,60.8,30.03,NE,35,5.4,10.3,100,0.00,,---,0.00,VWS V14.01,2013-10-05 21:05:00,
2013-10-05 17:10:00,59.9,59.9,30.03,NNE,28,3.6,6.3,100,0.00,,---,0.00,VWS V14.01,2013-10-05 21:10:00,
2013-10-05 17:15:00,60.4,60.4,30.03,NNE,33,8.9,11.2,100,0.00,,---,0.00,VWS V14.01,2013-10-05 21:15:00,
2013-10-05 17:20:00,59.9,59.9,30.03,North,4,2.7,6.7,100,0.00,,---,0.00,VWS V14.01,2013-10-05 21:20:00,
2013-10-05 17:25:00,59.9,59.9,30.03,North,359,10.3,10.7,100,0.00,,---,0.00,VWS V14.01,2013-10-05 21:25:00,
2013-10-05 17:30:00,59.9,59.9,30.03,NNE,12,4.9,7.2,100,0.00,,---,0.00,VWS V14.01,2013-10-05 21:30:00,
2013-10-05 17:35:00,59.9,59.9,30.03,NNE,19,5.4,5.8,100,0.00,,---,0.00,VWS V14.01,2013-10-05 21:35:00,
2013-10-05 17:40:00,59.9,59.9,30.03,North,9,4.5,6.3,100,0.00,,---,0.00,VWS V14.01,2013-10-05 21:40:00,
2013-10-05 17:45:00,59.9,59.9,30.00,NNE,32,3.1,5.8,100,0.00,,---,0.00,VWS V14.01,2013-10-05 21:45:00,
2013-10-05 17:50:00,59.9,59.9,30.03,North,1,5.8,8.9,100,0.00,,---,0.00,VWS V14.01,2013-10-05 21:50:00,
2013-10-05 17:55:00,59.9,59.9,30.00,North,4,5.8,5.8,100,0.00,,---,0.00,VWS V14.01,2013-10-05 21:55:00,
2013-10-05 18:00:00,59.9,59.9,30.00,NNE,19,4.5,5.8,100,0.00,,---,0.00,VWS V14.01,2013-10-05 22:00:00,
2013-10-05 18:05:00,59.9,59.9,30.03,NNE,16,5.8,7.6,100,0.00,,---,0.00,VWS V14.01,2013-10-05 22:05:00,
2013-10-05 18:10:00,59.9,59.9,30.00,NNE,15,2.7,6.3,100,0.00,,---,0.00,VWS V14.01,2013-10-05 22:10:00,
2013-10-05 18:15:00,60.1,60.1,30.03,North,7,5.4,7.6,100,0.00,,---,0.00,VWS V14.01,2013-10-05 22:15:00,
2013-10-05 18:20:00,59.9,59.9,30.00,NNE,18,1.3,4.5,100,0.00,,---,0.00,VWS V14.01,2013-10-05 22:20:00,
2013-10-05 18:25:00,59.9,59.9,30.00,NNE,19,0.0,4.0,100,0.00,,---,0.00,VWS V14.01,2013-10-05 22:25:00,
2013-10-05 18:30:00,59.9,59.9,30.00,NNE,19,0.0,0.0,100,0.00,,---,0.00,VWS V14.01,2013-10-05 22:30:00,
2013-10-05 18:35:00,59.9,59.9,30.00,NNE,19,0.0,0.0,100,0.00,,---,0.00,VWS V14.01,2013-10-05 22:35:00,
2013-10-05 18:40:00,59.9,59.9,30.03,North,9,4.5,6.3,100,0.00,,---,0.00,VWS V14.01,2013-10-05 22:40:00,
2013-10-05 18:45:00,59.9,59.9,30.00,NNE,21,0.0,0.0,100,0.00,,---,0.00,VWS V14.01,2013-10-05 22:45:00,
2013-10-05 18:50:00,60.1,60.1,30.00,NNE,19,0.0,0.0,100,0.00,,---,0.00,VWS V14.01,2013-10-05 22:50:00,
2013-10-05 18:55:00,59.9,59.9,30.00,North,4,5.8,5.8,100,0.00,,---,0.00,VWS V14.01,2013-10-05 22:55:00,
2013-10-05 19:00:00,60.1,60.1,30.03,NNE,18,0.0,0.0,100,0.00,,---,0.00,VWS V14.01,2013-10-05 23:00:00,
2013-10-05 19:05:00,59.9,59.9,30.00,North,9,4.9,5.8,100,0.00,,---,0.00,VWS V14.01,2013-10-05 23:05:00,
2013-10-05 19:10:00,60.1,60.1,30.03,NNE,19,0.0,0.0,100,0.00,,---,0.00,VWS V14.01,2013-10-05 23:10:00,
2013-10-05 19:15:00,60.1,60.1,30.03,NNE,19,0.0,0.0,100,0.00,,---,0.00,VWS V14.01,2013-10-05 23:15:00,
2013-10-05 19:20:00,60.1,60.1,30.03,NNE,19,0.0,3.6,100,0.00,,---,0.00,VWS V14.01,2013-10-05 23:20:00,
2013-10-05 19:25:00,59.9,59.9,30.00,NNE,19,0.0,4.0,100,0.00,,---,0.00,VWS V14.01,2013-10-05 23:25:00,
2013-10-05 19:30:00,60.1,60.1,30.00,NNE,19,0.0,0.0,100,0.00,,---,0.00,VWS V14.01,2013-10-05 23:30:00,
2013-10-05 19:35:00,60.1,60.1,30.00,NNE,19,0.0,0.0,100,0.00,,---,0.00,VWS V14.01,2013-10-05 23:35:00,
2013-10-05 19:40:00,59.9,59.9,30.00,NNE,19,0.0,0.0,100,0.00,,---,0.00,VWS V14.01,2013-10-05 23:40:00,
2013-10-05 19:45:00,60.1,60.1,30.00,NNE,19,0.0,0.0,100,0.00,,---,0.00,VWS V14.01,2013-10-05 23:45:00,
2013-10-05 19:50:00,60.1,60.1,30.00,NNE,19,0.0,0.0,100,0.00,,---,0.00,VWS V14.01,2013-10-05 23:50:00,
2013-10-05 19:55:00,60.1,60.1,30.00,NNE,19,0.0,0.0,100,0.00,,---,0.00,VWS V14.01,2013-10-05 23:55:00,
2013-10-05 20:00:00,60.1,60.1,30.03,NNE,18,0.0,0.0,100,0.00,,---,0.00,VWS V14.01,2013-10-06 00:00:00,
2013-10-05 20:05:00,60.1,60.1,30.00,NNE,19,0.0,0.0,100,0.00,,---,0.00,VWS V14.01,2013-10-06 00:05:00,
2013-10-05 20:10:00,60.3,60.3,30.00,NNE,19,0.0,0.0,100,0.00,,---,0.00,VWS V14.01,2013-10-06 00:10:00,
2013-10-05 20:15:00,60.1,60.1,30.03,NNE,19,0.0,0.0,100,0.00,,---,0.00,VWS V14.01,2013-10-06 00:15:00,
2013-10-05 20:20:00,60.3,60.3,30.03,NNE,19,0.0,0.0,100,0.00,,---,0.00,VWS V14.01,2013-10-06 00:20:00,
2013-10-05 20:25:00,60.1,60.1,30.03,NNE,19,0.0,0.0,100,0.00,,---,0.00,VWS V14.01,2013-10-06 00:25:00,
2013-10-05 20:30:00,60.4,60.4,30.03,NNE,19,3.6,4.5,100,0.00,,---,0.00,VWS V14.01,2013-10-06 00:30:00,
2013-10-05 20:35:00,60.1,60.1,30.00,NNE,19,0.0,0.0,100,0.00,,---,0.00,VWS V14.01,2013-10-06 00:35:00,
2013-10-05 20:40:00,60.4,60.4,30.03,NNE,19,0.0,0.0,100,0.00,,---,0.00,VWS V14.01,2013-10-06 00:40:00,
2013-10-05 20:45:00,60.6,60.6,30.00,NNE,22,0.0,0.0,100,0.00,,---,0.00,VWS V14.01,2013-10-06 00:45:00,
2013-10-05 20:50:00,60.6,60.6,30.00,NNE,19,0.0,0.0,100,0.00,,---,0.00,VWS V14.01,2013-10-06 00:50:00,
2013-10-05 20:55:00,60.6,60.6,30.00,NNE,19,0.0,0.0,100,0.00,,---,0.00,VWS V14.01,2013-10-06 00:55:00,
2013-10-05 21:00:00,60.3,60.3,30.00,NNE,19,0.0,0.0,100,0.00,,---,0.00,VWS V14.01,2013-10-06 01:00:00,
2013-10-05 21:05:00,60.6,60.6,30.00,NNE,19,0.0,0.0,100,0.00,,---,0.00,VWS V14.01,2013-10-06 01:05:00,
2013-10-05 21:10:00,60.3,60.3,30.00,NNE,19,0.0,0.0,100,0.00,,---,0.00,VWS V14.01,2013-10-06 01:10:00,
2013-10-05 21:15:00,60.6,60.6,30.00,NNE,19,0.0,0.0,100,0.00,,---,0.00,VWS V14.01,2013-10-06 01:15:00,
2013-10-05 21:20:00,60.8,60.8,30.00,NNE,19,0.0,0.0,100,0.00,,---,0.00,VWS V14.01,2013-10-06 01:20:00,
2013-10-05 21:25:00,60.4,60.4,30.03,NNE,19,0.0,0.0,100,0.00,,---,0.00,VWS V14.01,2013-10-06 01:25:00,
2013-10-05 21:30:00,60.8,60.8,30.00,NNE,19,0.0,0.0,100,0.00,,---,0.00,VWS V14.01,2013-10-06 01:30:00,
2013-10-05 21:35:00,60.4,60.4,30.03,NNE,19,0.0,4.0,100,0.00,,---,0.00,VWS V14.01,2013-10-06 01:35:00,
2013-10-05 21:40:00,61.0,61.0,30.00,NE,50,2.2,4.5,100,0.00,,---,0.00,VWS V14.01,2013-10-06 01:40:00,
2013-10-05 21:45:00,60.6,60.6,30.00,NNE,22,0.0,0.0,100,0.00,,---,0.00,VWS V14.01,2013-10-06 01:45:00,
2013-10-05 21:50:00,61.0,61.0,30.03,NE,45,0.0,4.9,100,0.00,,---,0.00,VWS V14.01,2013-10-06 01:50:00,
2013-10-05 21:55:00,61.2,61.2,30.03,NE,45,0.0,0.0,100,0.00,,---,0.00,VWS V14.01,2013-10-06 01:55:00,
2013-10-05 22:00:00,60.6,60.6,30.00,NNE,19,0.0,0.0,100,0.00,,---,0.00,VWS V14.01,2013-10-06 02:00:00,
2013-10-05 22:05:00,61.2,61.2,30.03,NE,45,0.0,0.0,100,0.00,,---,0.00,VWS V14.01,2013-10-06 02:05:00,
2013-10-05 22:10:00,60.6,60.6,30.00,NNE,19,0.0,0.0,100,0.00,,---,0.00,VWS V14.01,2013-10-06 02:10:00,
2013-10-05 22:15:00,61.3,61.3,30.03,NE,45,0.0,0.0,100,0.00,,---,0.00,VWS V14.01,2013-10-06 02:15:00,
2013-10-05 22:20:00,60.8,60.8,30.00,NNE,19,0.0,0.0,100,0.00,,---,0.00,VWS V14.01,2013-10-06 02:20:00,
2013-10-05 22:25:00,61.3,61.3,30.03,NE,45,0.0,0.0,100,0.00,,---,0.00,VWS V14.01,2013-10-06 02:25:00,
2013-10-05 22:30:00,61.3,61.3,30.03,NE,45,0.0,0.0,100,0.00,,---,0.00,VWS V14.01,2013-10-06 02:30:00,
2013-10-05 22:35:00,61.0,61.0,30.00,NNE,19,0.0,0.0,100,0.00,,---,0.00,VWS V14.01,2013-10-06 02:35:00,
2013-10-05 22:40:00,61.5,61.5,30.03,NE,45,0.0,0.0,100,0.00,,---,0.00,VWS V14.01,2013-10-06 02:40:00,
2013-10-05 22:45:00,61.0,61.0,30.03,NE,45,4.9,5.4,100,0.00,,---,0.00,VWS V14.01,2013-10-06 02:45:00,
2013-10-05 22:50:00,61.5,61.5,30.03,NE,45,0.0,0.0,100,0.00,,---,0.00,VWS V14.01,2013-10-06 02:50:00,
2013-10-05 22:55:00,61.2,61.2,30.03,NE,45,0.0,0.0,100,0.00,,---,0.00,VWS V14.01,2013-10-06 02:55:00,
2013-10-05 23:00:00,61.5,61.5,30.03,NE,45,0.0,0.0,100,0.00,,---,0.00,VWS V14.01,2013-10-06 03:00:00,
2013-10-05 23:05:00,61.5,61.5,30.03,NE,45,0.0,0.0,100,0.00,,---,0.00,VWS V14.01,2013-10-06 03:05:00,
2013-10-05 23:10:00,61.5,61.5,30.03,NE,45,0.0,0.0,100,0.00,,---,0.00,VWS V14.01,2013-10-06 03:10:00,
2013-10-05 23:15:00,61.5,61.5,30.00,NE,45,0.0,0.0,100,0.00,,---,0.00,VWS V14.01,2013-10-06 03:15:00,
2013-10-05 23:20:00,61.3,61.3,30.03,NE,45,0.0,0.0,100,0.00,,---,0.00,VWS V14.01,2013-10-06 03:20:00,
2013-10-05 23:25:00,61.5,61.5,30.00,NE,45,0.0,0.0,100,0.00,,---,0.00,VWS V14.01,2013-10-06 03:25:00,
2013-10-05 23:30:00,61.3,61.3,30.03,NE,45,0.0,0.0,100,0.00,,---,0.00,VWS V14.01,2013-10-06 03:30:00,
2013-10-05 23:35:00,61.7,61.7,30.00,NE,45,0.0,0.0,100,0.00,,---,0.00,VWS V14.01,2013-10-06 03:35:00,
2013-10-05 23:40:00,61.5,61.5,30.03,NE,45,0.0,0.0,100,0.00,,---,0.00,VWS V14.01,2013-10-06 03:40:00,
2013-10-05 23:45:00,61.9,61.9,30.00,NE,45,0.0,0.0,100,0.00,,---,0.00,VWS V14.01,2013-10-06 03:45:00,
2013-10-05 23:50:00,61.9,61.9,30.00,NE,45,0.0,0.0,100,0.00,,---,0.00,VWS V14.01,2013-10-06 03:50:00,
2013-10-05 23:55:00,61.5,61.5,30.03,NE,45,0.0,0.0,100,0.00,,---,0.00,VWS V14.01,2013-10-06 03:55:00,